AirNav   Everest Fuels
 
 1093 users online  

4GA0 Hodges Field Airport
Americus, Georgia, USA

GOING TO AMERICUS?


FAA INFORMATION EFFECTIVE 04 NOVEMBER 2021

Location

FAA Identifier: 4GA0
Lat/Long: 32-07-24.5500N 084-07-47.8800W
32-07.409167N 084-07.798000W
32.1234861,-84.1299667
(estimated)
Elevation: 455 ft. / 139 m
From city: 6 miles NE of AMERICUS, GA
Time zone: UTC -4 (UTC -5 during Standard Time)
Zip code: 31711

Airport Operations

Airport use: Private use. Permission required prior to landing
Activation date: 01/2016
Control tower: no
ARTCC: ATLANTA CENTER
FSS: MACON FLIGHT SERVICE STATION
Attendance: 
Wind indicator: yes
Segmented circle: no

Airport Communications

UNICOM: 122.8
WX AWOS-3 at ACJ (3 nm W): 128.375 (229-928-0934)
WX AWOS-3PT at CKF (20 nm SE): 119.325 (229-276-2669)

Nearby radio navigation aids

VOR radial/distance  VOR name  Freq  Var
PZDr018/29.3PECAN VOR/DME116.1002W
VNAr259/32.6VIENNA VORTAC116.5001E

 
NDB name  Hdg/Dist  Freq  Var  ID
LINDBERGH204/3.324204WLKG .-.. -.- --.
CONEY305/15.640006WOHY --- .... -.--
MONTEZUMA207/15.942604WIZS .. --.. ...

Airport Services

Runway Information

Runway 8/26

Dimensions: 1380 x 200 ft. / 421 x 61 m
Surface: turf
RUNWAY 8  RUNWAY 26
Traffic pattern: rightleft

Airport Ownership and Management from official FAA records

Ownership: Privately-owned
Owner: MCNEILL HODGES
428 NEIL HODGES RD.
ANDERSONVILLE, GA 31711
Phone 229-938-5054
Manager: MCNEILL HODGES
428 NEIL HODGES RD.
ANDERSONVILLE, GA 31711
Phone 229-938-5054

Airport Operational Statistics

Aircraft based on the field: 10
Single engine airplanes: 6
Ultralights: 4
    

Additional Remarks

FOR CD CTC ATLANTA ARTCC AT 770-210-7692.

Instrument Procedures

There are no published instrument procedures at 4GA0.

Some nearby airports with instrument procedures:

KACJ - Jimmy Carter Regional Airport (3 nm W)
53A - Dr. C P Savage Sr. Airport (12 nm NE)
KCKF - Crisp County-Cordele Airport (20 nm SE)
16J - Dawson Municipal Airport (27 nm SW)
6A1 - Butler Municipal Airport (27 nm N)
 
Loc | Ops | Rwys | IFR | FBO | Links
Com | Nav | Svcs | Stats | Notes
Aerial photo
No photo
 
Airport distance calculator
Flying to Hodges Field Airport? Find the distance to fly.

From to 4GA0

Sunrise and sunset
Times for 30-Nov-2021
 Local
(UTC-5)
 Zulu
(UTC)
Morning civil twilight06:5311:53
Sunrise07:2012:20
Sunset17:3122:31
Evening civil twilight17:5722:57

Current date and time
Zulu (UTC)  01-Dec-2021 03:30:41
Local (UTC-5)  30-Nov-2021 22:30:41
 
METAR
KACJ 
3nm W 
010310Z AUTO 00000KT 07/02 RMK AO2 PWINO
KCKF 
20nm SE 
010315Z AUTO 00000KT 10SM CLR 05/01 A3023 RMK AO2 T00460007
TAF
KABY 
36nm S 
301720Z 3018/0118 01006KT P6SM SKC FM011200 VRB02KT P6SM SCT250
KWRB 
41nm NE 
010100Z 0101/0207 VRB06KT 9999 FEW250 QNH3016INS BECMG 0111/0112 VRB06KT 9999 SCT250 QNH3015INS TX21/0120Z TN02/0111Z
KMCN 
41nm NE 
301720Z 3018/0118 26006KT P6SM SKC FM010000 00000KT P6SM SKC FM011600 24005KT P6SM FEW250
NOTAMs
Click for the latest NOTAMs
NOTAMs are issued by the DoD/FAA and will open in a separate window not controlled by AirNav.

 

 
 

Would you like to see your business listed on this page?

 If your business provides an interesting product or service to pilots, flight crews, aircraft, or users of the Hodges Field Airport, you should consider listing it here.  To start the listing process, click on the button below
 
Add a business
 

Other Pages about Hodges Field Airport

Update a link
 
Copyright © AirNav, LLC. All rights reserved. Privacy Policy  Contact